createdAt,value
2022-12-06T00:01:20.213Z,8.38
2022-12-06T00:03:53.488Z,8.43
2022-12-06T00:06:23.596Z,8.31
2022-12-06T00:08:52.585Z,8.08
2022-12-06T00:11:23.033Z,8.03
2022-12-06T00:14:05.976Z,8.09
2022-12-06T00:16:35.553Z,7.98
2022-12-06T00:19:04.820Z,7.91
2022-12-06T00:21:34.949Z,7.83
2022-12-06T00:24:06.334Z,7.80
2022-12-06T00:26:39.233Z,7.76
2022-12-06T00:29:08.642Z,7.76
2022-12-06T00:31:36.447Z,7.73
2022-12-06T00:34:04.347Z,7.72
2022-12-06T00:36:35.335Z,7.59
2022-12-06T00:39:07.177Z,7.57
2022-12-06T00:41:35.261Z,7.51
2022-12-06T00:44:03.224Z,7.46
2022-12-06T00:46:32.387Z,7.46
2022-12-06T00:49:02.165Z,7.51
2022-12-06T00:51:31.759Z,7.51
2022-12-06T00:53:59.578Z,7.50
2022-12-06T00:56:27.936Z,7.66
2022-12-06T00:58:55.616Z,7.66
2022-12-06T01:01:26.133Z,7.65
2022-12-06T01:03:57.898Z,7.40
2022-12-06T01:06:28.579Z,7.36
2022-12-06T01:09:00.729Z,7.48
2022-12-06T01:11:29.427Z,7.47
2022-12-06T01:13:57.878Z,7.53
2022-12-06T01:16:28.381Z,7.63
2022-12-06T01:18:59.059Z,7.58
2022-12-06T01:21:28.188Z,7.71
2022-12-06T01:23:56.534Z,7.67
2022-12-06T01:26:26.952Z,7.64
2022-12-06T01:28:55.502Z,7.71
2022-12-06T01:31:23.692Z,7.87
2022-12-06T01:33:51.243Z,7.93
2022-12-06T01:36:25.026Z,7.39
2022-12-06T01:38:55.322Z,7.84
2022-12-06T01:41:25.679Z,7.83
2022-12-06T01:43:54.530Z,7.70
2022-12-06T01:46:22.086Z,7.63
2022-12-06T01:48:53.535Z,7.66
2022-12-06T01:51:21.576Z,7.52
2022-12-06T01:53:51.200Z,7.71
2022-12-06T01:56:19.930Z,7.59
2022-12-06T01:58:49.465Z,7.62
2022-12-06T02:01:17.413Z,7.63
2022-12-06T02:03:48.362Z,7.75
2022-12-06T02:06:17.360Z,7.79
2022-12-06T02:08:46.294Z,7.58
2022-12-06T02:11:14.344Z,7.59
2022-12-06T02:13:42.359Z,7.88
2022-12-06T02:16:29.159Z,7.76
2022-12-06T02:19:14.300Z,8.05
2022-12-06T02:22:02.315Z,8.20
2022-12-06T02:25:05.664Z,8.20
2022-12-06T02:27:39.555Z,8.03
2022-12-06T02:30:28.388Z,7.60
2022-12-06T02:33:04.517Z,7.87
2022-12-06T02:35:40.439Z,8.11
2022-12-06T02:38:20.715Z,8.17
2022-12-06T02:40:57.675Z,8.05
2022-12-06T02:43:31.398Z,7.89
2022-12-06T02:46:03.139Z,7.95
2022-12-06T02:48:33.792Z,7.88
2022-12-06T02:51:07.598Z,7.95
2022-12-06T02:53:39.411Z,7.82
2022-12-06T02:56:08.096Z,7.82
2022-12-06T02:58:37.260Z,7.69
2022-12-06T03:01:36.693Z,7.76
2022-12-06T03:04:07.688Z,7.73
2022-12-06T03:07:07.327Z,7.68
2022-12-06T03:09:53.585Z,7.73
2022-12-06T03:12:48.142Z,7.92
2022-12-06T03:15:15.921Z,7.84
2022-12-06T03:17:58.572Z,7.90
2022-12-06T03:20:26.458Z,7.90
2022-12-06T03:23:02.500Z,7.96
2022-12-06T03:25:33.353Z,7.95
2022-12-06T03:28:03.873Z,7.86
2022-12-06T03:30:34.678Z,7.63
2022-12-06T03:33:03.495Z,7.70
2022-12-06T03:35:35.616Z,7.68
2022-12-06T03:38:17.150Z,7.61
2022-12-06T03:40:49.330Z,7.68
2022-12-06T03:43:17.423Z,7.57
2022-12-06T03:45:51.185Z,7.52
2022-12-06T03:48:21.603Z,7.50
2022-12-06T03:50:58.660Z,7.40
2022-12-06T03:53:26.583Z,7.31
2022-12-06T03:55:54.434Z,7.30
2022-12-06T03:58:22.036Z,7.33
2022-12-06T04:00:49.739Z,7.39
2022-12-06T04:03:17.744Z,7.39
2022-12-06T04:05:45.447Z,7.45
2022-12-06T04:08:13.065Z,7.40
2022-12-06T04:10:40.937Z,7.40
2022-12-06T04:13:08.918Z,7.44
2022-12-06T04:15:38.244Z,7.45
2022-12-06T04:18:16.410Z,7.43
2022-12-06T04:21:07.325Z,7.40
2022-12-06T04:23:38.108Z,7.35
2022-12-06T04:26:07.642Z,7.28
2022-12-06T04:28:54.224Z,7.20
2022-12-06T04:31:40.960Z,7.13
2022-12-06T04:34:27.408Z,7.25
2022-12-06T04:37:14.147Z,7.35
2022-12-06T04:39:42.106Z,7.35
2022-12-06T04:42:28.703Z,7.38
2022-12-06T04:44:56.831Z,7.41
2022-12-06T04:47:24.798Z,7.52
2022-12-06T04:49:52.632Z,7.47
2022-12-06T04:52:20.649Z,7.71
2022-12-06T04:54:48.298Z,7.78
2022-12-06T04:57:16.897Z,7.88
2022-12-06T04:59:46.405Z,7.85
2022-12-06T05:02:15.481Z,7.82
2022-12-06T05:04:43.402Z,7.82
2022-12-06T05:07:12.761Z,7.86
2022-12-06T05:09:40.370Z,7.89
2022-12-06T05:12:08.398Z,7.96
2022-12-06T05:14:36.306Z,7.98
2022-12-06T05:17:03.895Z,7.82
2022-12-06T05:19:31.691Z,7.74
2022-12-06T05:21:59.542Z,7.86
2022-12-06T05:24:27.061Z,7.73
2022-12-06T05:26:54.665Z,7.66
2022-12-06T05:29:22.578Z,7.44
2022-12-06T05:31:50.232Z,7.39
2022-12-06T05:34:17.783Z,7.42
2022-12-06T05:36:46.020Z,7.25
2022-12-06T05:39:13.628Z,7.37
2022-12-06T05:41:41.141Z,7.32
2022-12-06T05:44:12.239Z,7.16
2022-12-06T05:46:39.790Z,7.13
2022-12-06T05:49:07.650Z,7.31
2022-12-06T05:51:36.133Z,7.18
2022-12-06T05:54:06.717Z,7.07
2022-12-06T05:56:34.388Z,7.22
2022-12-06T05:59:03.409Z,7.02
2022-12-06T06:01:31.282Z,6.93
2022-12-06T06:03:59.114Z,7.01
2022-12-06T06:06:26.686Z,7.12
2022-12-06T06:08:55.078Z,6.81
2022-12-06T06:11:23.031Z,6.93
2022-12-06T06:13:50.597Z,6.71
2022-12-06T06:16:18.160Z,6.83
2022-12-06T06:18:46.148Z,7.02
2022-12-06T06:21:14.183Z,7.01
2022-12-06T06:23:41.752Z,6.53
2022-12-06T06:26:11.821Z,7.01
2022-12-06T06:28:39.434Z,7.15
2022-12-06T06:31:07.870Z,7.27
2022-12-06T06:33:36.329Z,7.36
2022-12-06T06:36:04.171Z,7.39
2022-12-06T06:38:31.772Z,7.41
2022-12-06T06:41:04.134Z,7.53
2022-12-06T06:43:32.845Z,7.62
2022-12-06T06:46:03.011Z,7.71
2022-12-06T06:48:33.472Z,7.69
2022-12-06T06:51:07.672Z,7.87
2022-12-06T06:53:36.450Z,7.90
2022-12-06T06:56:05.760Z,7.95
2022-12-06T06:58:33.637Z,8.01
2022-12-06T07:01:03.770Z,8.04
2022-12-06T07:03:32.090Z,8.01
2022-12-06T07:06:02.572Z,8.01
2022-12-06T07:08:32.033Z,7.98
2022-12-06T07:11:00.459Z,7.76
2022-12-06T07:13:29.371Z,7.82
2022-12-06T07:15:58.932Z,7.79
2022-12-06T07:18:27.477Z,7.87
2022-12-06T07:21:15.227Z,7.79
2022-12-06T07:23:43.298Z,7.78
2022-12-06T07:26:16.685Z,7.67
2022-12-06T07:28:46.515Z,7.89
2022-12-06T07:31:23.607Z,7.83
2022-12-06T07:33:54.059Z,7.87
2022-12-06T07:36:23.304Z,7.81
2022-12-06T07:38:54.884Z,7.88
2022-12-06T07:41:42.281Z,7.89
2022-12-06T07:44:31.430Z,7.14
2022-12-06T07:47:00.025Z,7.93
2022-12-06T07:49:28.625Z,7.93
2022-12-06T07:51:56.922Z,8.18
2022-12-06T07:54:25.201Z,8.26
2022-12-06T07:56:56.246Z,7.96
2022-12-06T07:59:24.809Z,8.03
2022-12-06T08:01:53.497Z,8.26
2022-12-06T08:04:21.675Z,8.27
2022-12-06T08:06:49.300Z,8.40
2022-12-06T08:09:16.925Z,8.63
2022-12-06T08:11:44.819Z,8.63
2022-12-06T08:14:12.454Z,8.29
2022-12-06T08:16:41.290Z,8.64
2022-12-06T08:19:09.495Z,8.58
2022-12-06T08:21:37.467Z,8.77
2022-12-06T08:24:05.337Z,8.74
2022-12-06T08:26:33.199Z,8.70
2022-12-06T08:29:01.591Z,8.70
2022-12-06T08:31:31.119Z,8.94
2022-12-06T08:33:59.216Z,8.55
2022-12-06T08:36:28.457Z,8.68
2022-12-06T08:38:58.476Z,8.75
2022-12-06T08:41:45.012Z,8.99
2022-12-06T08:44:14.955Z,8.98
2022-12-06T08:46:43.752Z,8.57
2022-12-06T08:49:13.081Z,8.76
2022-12-06T08:51:40.924Z,8.41
2022-12-06T08:54:13.780Z,8.64
2022-12-06T08:56:41.526Z,8.73
2022-12-06T08:59:10.145Z,8.98
2022-12-06T09:01:38.700Z,8.67
2022-12-06T09:04:09.412Z,8.40
2022-12-06T09:06:40.058Z,8.15
2022-12-06T09:09:09.082Z,8.51
2022-12-06T09:11:37.918Z,8.55
2022-12-06T09:14:07.283Z,8.65
2022-12-06T09:16:35.709Z,8.97
2022-12-06T09:19:03.947Z,9.00
2022-12-06T09:21:33.033Z,8.96
2022-12-06T09:24:00.689Z,8.93
2022-12-06T09:26:29.750Z,8.99
2022-12-06T09:28:58.653Z,8.89
2022-12-06T09:31:26.365Z,9.14
2022-12-06T09:33:54.519Z,9.31
2022-12-06T09:36:31.097Z,8.68
2022-12-06T09:39:16.201Z,9.18
2022-12-06T09:42:31.137Z,9.11
2022-12-06T09:45:14.288Z,8.45
2022-12-06T09:48:03.316Z,9.01
2022-12-06T09:50:38.048Z,9.24
2022-12-06T09:53:17.616Z,8.94
2022-12-06T09:56:06.299Z,8.80
2022-12-06T09:58:50.371Z,8.79
2022-12-06T10:01:55.243Z,8.80
2022-12-06T10:04:28.560Z,8.99
2022-12-06T10:07:23.805Z,8.88
2022-12-06T10:10:14.950Z,8.37
2022-12-06T10:12:57.565Z,8.80
2022-12-06T10:16:01.209Z,8.64
2022-12-06T10:18:50.014Z,8.17
2022-12-06T10:21:24.841Z,8.18
2022-12-06T10:24:09.100Z,8.42
2022-12-06T10:27:04.835Z,8.30
2022-12-06T10:30:16.841Z,7.74
2022-12-06T10:32:50.951Z,8.13
2022-12-06T10:35:47.732Z,8.26
2022-12-06T10:39:00.274Z,8.59
2022-12-06T10:41:38.725Z,8.62
2022-12-06T10:44:18.753Z,8.31
2022-12-06T10:47:10.399Z,8.29
2022-12-06T10:49:59.862Z,8.15
2022-12-06T10:52:39.618Z,8.01
2022-12-06T10:55:13.189Z,7.98
2022-12-06T10:57:43.692Z,8.02
2022-12-06T11:00:18.313Z,8.56
2022-12-06T11:03:14.187Z,8.23
2022-12-06T11:05:52.696Z,7.62
2022-12-06T11:08:35.494Z,8.29
2022-12-06T11:11:05.857Z,8.29
2022-12-06T11:13:56.696Z,8.51
2022-12-06T11:16:38.078Z,8.34
2022-12-06T11:19:33.484Z,8.49
2022-12-06T11:22:39.535Z,8.64
2022-12-06T11:25:38.071Z,8.29
2022-12-06T11:28:21.691Z,8.40
2022-12-06T11:30:53.301Z,8.09
2022-12-06T11:33:33.950Z,8.29
2022-12-06T11:36:04.692Z,8.21
2022-12-06T11:38:35.165Z,8.14
2022-12-06T11:41:06.778Z,7.93
2022-12-06T11:43:36.344Z,7.98
2022-12-06T11:46:06.455Z,7.91
2022-12-06T11:48:35.776Z,8.38
2022-12-06T11:51:15.481Z,7.92
2022-12-06T11:53:46.048Z,8.29
2022-12-06T11:56:24.831Z,8.43
2022-12-06T11:59:08.345Z,8.48
2022-12-06T12:01:45.119Z,8.57
2022-12-06T12:04:31.595Z,8.55
2022-12-06T12:07:22.670Z,8.55
2022-12-06T12:09:58.530Z,8.62
2022-12-06T12:12:55.471Z,8.67
2022-12-06T12:15:23.749Z,8.52
2022-12-06T12:17:55.192Z,8.61
2022-12-06T12:20:30.370Z,8.65
2022-12-06T12:23:01.186Z,8.29
2022-12-06T12:25:31.661Z,8.24
2022-12-06T12:28:01.442Z,8.26
2022-12-06T12:30:37.493Z,8.10
2022-12-06T12:33:07.840Z,8.39
2022-12-06T12:35:40.143Z,8.13
2022-12-06T12:38:10.866Z,8.34
2022-12-06T12:40:43.232Z,8.09
2022-12-06T12:43:10.581Z,8.29
2022-12-06T12:45:41.017Z,7.91
2022-12-06T12:48:23.904Z,8.10
2022-12-06T12:50:57.388Z,8.26
2022-12-06T12:53:38.403Z,8.33
2022-12-06T12:56:16.174Z,8.23
2022-12-06T12:58:47.056Z,8.13
2022-12-06T13:01:24.334Z,8.12
2022-12-06T13:03:57.562Z,8.14
2022-12-06T13:06:38.828Z,8.09
2022-12-06T13:09:12.301Z,7.86
2022-12-06T13:11:45.724Z,8.10
2022-12-06T13:14:19.114Z,7.86
2022-12-06T13:16:52.011Z,7.86
2022-12-06T13:19:25.057Z,8.07
2022-12-06T13:21:53.308Z,8.09
2022-12-06T13:24:27.346Z,7.72
2022-12-06T13:27:00.859Z,7.88
2022-12-06T13:29:37.647Z,8.00
2022-12-06T13:32:16.460Z,7.69
2022-12-06T13:34:57.514Z,7.93
2022-12-06T13:37:45.686Z,8.00
2022-12-06T13:40:32.581Z,8.14
2022-12-06T13:43:03.111Z,7.80
2022-12-06T13:45:45.422Z,7.85
2022-12-06T13:48:37.887Z,7.98
2022-12-06T13:51:32.527Z,8.04
2022-12-06T13:54:06.366Z,8.05
2022-12-06T13:56:33.926Z,7.96
2022-12-06T13:59:15.252Z,7.99
2022-12-06T14:02:04.569Z,7.86
2022-12-06T14:09:45.094Z,7.57
2022-12-06T14:12:19.113Z,7.92
2022-12-06T14:15:05.779Z,7.79
2022-12-06T14:20:31.982Z,7.76
2022-12-06T14:22:59.572Z,8.01
2022-12-06T14:25:30.412Z,8.12
2022-12-06T14:28:12.334Z,7.80
2022-12-06T14:30:40.348Z,7.76
2022-12-06T14:33:21.991Z,8.12
2022-12-06T14:35:52.483Z,8.08
2022-12-06T14:38:22.252Z,8.11
2022-12-06T14:41:09.524Z,7.88
2022-12-06T14:43:38.236Z,8.05
2022-12-06T14:46:08.303Z,8.22
2022-12-06T14:48:55.071Z,8.29
2022-12-06T14:51:40.967Z,8.00
2022-12-06T14:54:41.286Z,8.09
2022-12-06T14:57:25.324Z,8.02
2022-12-06T15:00:26.364Z,7.95
2022-12-06T15:03:03.386Z,8.24
2022-12-06T15:05:37.611Z,8.18
2022-12-06T15:08:27.323Z,8.02
2022-12-06T15:11:40.742Z,8.05
2022-12-06T15:14:14.730Z,8.28
2022-12-06T15:16:44.874Z,8.18
2022-12-06T15:19:16.789Z,7.90
2022-12-06T15:21:44.560Z,8.02
2022-12-06T15:24:18.036Z,7.97
2022-12-06T15:26:46.246Z,8.01
2022-12-06T15:29:14.177Z,7.84
2022-12-06T15:31:43.721Z,7.90
2022-12-06T15:34:24.478Z,7.90
2022-12-06T15:37:09.067Z,8.07
2022-12-06T15:39:41.374Z,7.89
2022-12-06T15:42:22.777Z,7.90
2022-12-06T15:44:51.174Z,7.69
2022-12-06T15:47:19.935Z,7.99
2022-12-06T15:49:50.982Z,8.15
2022-12-06T15:52:23.367Z,8.04
2022-12-06T15:54:51.138Z,8.22
2022-12-06T15:57:19.055Z,8.10
2022-12-06T15:59:46.568Z,8.00
2022-12-06T16:02:21.412Z,8.41
2022-12-06T16:04:51.012Z,8.25
2022-12-06T16:07:19.101Z,8.25
2022-12-06T16:09:47.977Z,8.04
2022-12-06T16:12:16.303Z,8.33
2022-12-06T16:14:43.834Z,8.46
2022-12-06T16:17:11.950Z,8.20
2022-12-06T16:19:58.375Z,8.06
2022-12-06T16:22:45.927Z,7.88
2022-12-06T16:25:13.979Z,7.92
2022-12-06T16:27:41.650Z,8.18
2022-12-06T16:30:09.759Z,8.29
2022-12-06T16:32:37.619Z,8.18
2022-12-06T16:35:05.341Z,7.77
2022-12-06T16:37:32.921Z,8.01
2022-12-06T16:40:01.059Z,7.57
2022-12-06T16:42:28.832Z,7.54
2022-12-06T16:44:56.431Z,7.67
2022-12-06T16:49:50.800Z,7.18
2022-12-06T16:52:18.403Z,7.52
2022-12-06T16:54:46.335Z,7.50
2022-12-06T16:57:14.979Z,7.35
2022-12-06T16:59:43.295Z,7.46
2022-12-06T17:02:32.369Z,7.31
2022-12-06T17:05:03.214Z,6.99
2022-12-06T17:07:31.566Z,7.50
2022-12-06T17:09:59.673Z,6.97
2022-12-06T17:12:27.643Z,7.20
2022-12-06T17:14:55.625Z,6.84
2022-12-06T17:17:25.961Z,7.26
2022-12-06T17:19:56.180Z,7.03
2022-12-06T17:22:24.781Z,7.16
2022-12-06T17:24:52.650Z,6.62
2022-12-06T17:27:21.592Z,6.80
2022-12-06T17:29:49.738Z,6.97
2022-12-06T17:32:18.204Z,6.48
2022-12-06T17:34:46.077Z,6.97
2022-12-06T17:37:14.107Z,6.56
2022-12-06T17:39:41.884Z,6.82
2022-12-06T17:42:30.574Z,6.88
2022-12-06T17:44:59.802Z,6.30
2022-12-06T17:47:28.095Z,6.68
2022-12-06T17:49:56.587Z,6.28
2022-12-06T17:52:25.055Z,6.28
2022-12-06T17:54:53.125Z,6.09
2022-12-06T17:57:21.218Z,6.12
2022-12-06T17:59:55.756Z,5.89
2022-12-06T18:02:24.773Z,6.17
2022-12-06T18:04:55.378Z,6.47
2022-12-06T18:07:23.830Z,6.26
2022-12-06T18:09:53.205Z,6.18
2022-12-06T18:12:21.140Z,5.94
2022-12-06T18:14:49.286Z,6.25
2022-12-06T18:17:17.577Z,6.22
2022-12-06T18:19:47.201Z,6.48
2022-12-06T18:22:15.593Z,5.75
2022-12-06T18:24:44.710Z,6.19
2022-12-06T18:27:13.355Z,6.22
2022-12-06T18:29:41.686Z,6.41
2022-12-06T18:32:12.002Z,6.35
2022-12-06T18:34:40.442Z,6.65
2022-12-06T18:37:08.244Z,6.56
2022-12-06T18:39:36.534Z,6.23
2022-12-06T18:42:05.045Z,5.89
2022-12-06T18:44:32.643Z,5.52
2022-12-06T18:47:00.790Z,5.42
2022-12-06T18:49:30.614Z,5.95
2022-12-06T18:51:59.643Z,5.45
2022-12-06T18:54:28.408Z,6.00
2022-12-06T18:56:58.796Z,5.95
2022-12-06T18:59:27.897Z,6.27
2022-12-06T19:01:57.169Z,6.40
2022-12-06T19:04:27.422Z,5.55
2022-12-06T19:06:57.407Z,5.34
2022-12-06T19:09:27.151Z,5.04
2022-12-06T19:11:58.474Z,5.38
2022-12-06T19:14:29.465Z,5.05
2022-12-06T19:16:58.351Z,5.36
2022-12-06T19:19:29.310Z,5.01
2022-12-06T19:22:01.491Z,5.53
2022-12-06T19:24:30.197Z,4.76
2022-12-06T19:27:00.625Z,4.59
2022-12-06T19:29:29.965Z,4.62
2022-12-06T19:31:59.572Z,4.47
2022-12-06T19:34:30.467Z,4.66
2022-12-06T19:37:01.689Z,4.63
2022-12-06T19:39:30.730Z,4.67
2022-12-06T19:42:17.902Z,4.48
2022-12-06T19:44:46.554Z,4.45
2022-12-06T19:47:15.005Z,4.53
2022-12-06T19:49:43.370Z,4.52
2022-12-06T19:52:13.435Z,5.14
2022-12-06T19:54:42.680Z,5.47
2022-12-06T19:57:11.824Z,5.26
2022-12-06T19:59:41.303Z,5.42
2022-12-06T20:02:14.144Z,5.12
2022-12-06T20:04:44.331Z,4.75
2022-12-06T20:07:13.379Z,4.27
2022-12-06T20:09:42.710Z,4.42
2022-12-06T20:12:13.251Z,4.06
2022-12-06T20:14:41.290Z,4.07
2022-12-06T20:17:14.804Z,3.94
2022-12-06T20:19:45.963Z,3.82
2022-12-06T20:22:15.600Z,4.06
2022-12-06T20:24:43.645Z,4.10
2022-12-06T20:27:12.009Z,4.12
2022-12-06T20:29:40.237Z,4.35
2022-12-06T20:32:10.211Z,4.43
2022-12-06T20:34:38.370Z,4.46
2022-12-06T20:37:07.871Z,4.32
2022-12-06T20:39:36.538Z,4.47
2022-12-06T20:42:06.988Z,4.43
2022-12-06T20:44:35.571Z,3.99
2022-12-06T20:47:04.343Z,4.21
2022-12-06T20:49:32.580Z,4.00
2022-12-06T20:52:02.958Z,4.14
2022-12-06T20:54:31.113Z,4.20
2022-12-06T20:56:58.951Z,4.32
2022-12-06T20:59:27.153Z,4.37
2022-12-06T21:01:55.324Z,4.71
2022-12-06T21:04:23.346Z,5.03
2022-12-06T21:06:52.830Z,4.67
2022-12-06T21:09:21.919Z,5.05
2022-12-06T21:11:49.774Z,5.08
2022-12-06T21:14:17.685Z,5.19
2022-12-06T21:16:45.579Z,5.06
2022-12-06T21:19:16.767Z,5.00
2022-12-06T21:21:48.103Z,4.96
2022-12-06T21:24:20.089Z,5.19
2022-12-06T21:26:48.652Z,4.85
2022-12-06T21:29:21.688Z,5.14
2022-12-06T21:31:52.207Z,4.84
2022-12-06T21:34:20.185Z,5.10
2022-12-06T21:36:47.824Z,4.66
2022-12-06T21:39:15.370Z,4.81
2022-12-06T21:41:43.504Z,4.77
2022-12-06T21:44:11.172Z,5.07
2022-12-06T21:46:38.869Z,4.99
2022-12-06T21:49:07.021Z,4.62
2022-12-06T21:51:34.693Z,4.84
2022-12-06T21:54:02.394Z,4.72
2022-12-06T21:56:31.204Z,5.07
2022-12-06T21:59:01.592Z,5.13
2022-12-06T22:01:30.943Z,4.93
2022-12-06T22:04:02.285Z,4.98
2022-12-06T22:06:31.499Z,4.73
2022-12-06T22:09:02.447Z,5.00
2022-12-06T22:11:30.798Z,5.19
2022-12-06T22:14:00.375Z,5.22
2022-12-06T22:16:29.232Z,5.22
2022-12-06T22:18:57.784Z,5.06
2022-12-06T22:21:30.193Z,4.90
2022-12-06T22:23:58.285Z,5.04
2022-12-06T22:26:29.416Z,4.66
2022-12-06T22:28:59.038Z,4.96
2022-12-06T22:31:33.311Z,4.61
2022-12-06T22:34:01.781Z,4.78
2022-12-06T22:36:30.726Z,4.68
2022-12-06T22:39:01.118Z,4.53
2022-12-06T22:41:29.845Z,4.67
2022-12-06T22:44:00.039Z,4.77
2022-12-06T22:46:28.541Z,4.66
2022-12-06T22:48:58.177Z,4.69
2022-12-06T22:51:29.129Z,4.60
2022-12-06T22:54:02.738Z,4.49
2022-12-06T22:56:31.367Z,4.71
2022-12-06T22:59:01.008Z,4.37
2022-12-06T23:01:31.866Z,4.94
2022-12-06T23:04:01.857Z,4.59
2022-12-06T23:06:29.704Z,4.41
2022-12-06T23:08:57.509Z,4.49
2022-12-06T23:11:31.327Z,4.83
2022-12-06T23:13:59.654Z,4.85
2022-12-06T23:16:29.661Z,4.63
2022-12-06T23:18:59.984Z,4.60
2022-12-06T23:21:33.155Z,4.76
2022-12-06T23:24:06.619Z,4.86
2022-12-06T23:26:37.878Z,4.94
2022-12-06T23:29:06.072Z,5.07
2022-12-06T23:31:36.779Z,4.93
2022-12-06T23:34:08.665Z,5.07
2022-12-06T23:36:36.856Z,4.95
2022-12-06T23:39:05.688Z,4.89
2022-12-06T23:41:34.866Z,4.42
2022-12-06T23:44:04.340Z,4.60
2022-12-06T23:46:34.975Z,4.39
2022-12-06T23:49:03.406Z,4.48
2022-12-06T23:51:36.715Z,4.38
2022-12-06T23:54:07.180Z,4.46
2022-12-06T23:56:39.423Z,4.76
2022-12-06T23:59:08.751Z,4.87
